South Range, MI (49963)

8:19 PM EST on February 10, 2016 (GMT -0500)
Old Mill Hill Rd | | Change Station
CLOSE
Current Station
Personal Weather Station
Location: Atlantic Mine, MI
Elevation: 1043 ft
Nearby Weather Stations

Elev 1043 ft 47.10 °N, 88.62 °W | Updated 2 seconds ago

Overcast
Overcast
8.4 °F
Feels Like -2 °F
N
6.3
Wind Variable Wind from West

Today
High -- | Low -- °F
--% Chance of Precip.
Yesterday
High -- | Low -- °F
Precip. -- in
Pressure 30.15 in
Visibility 6.0 miles
Clouds Overcast 2800 ft
Windchill -2 °F
Dew Point 4 °F
Humidity 82%
Rainfall 0.56 in
Snow Depth Not available.
8:07 AM 6:10 PM
Waxing Crescent, 8% visible
METAR KCMX 110053Z AUTO 34010G18KT 6SM -SN OVC028 M13/M18 A3006 RMK AO2 UPB38E39SNE38B42 SLP208 P0000 T11331178 TSNO $
Pressure 30.15 in
Visibility 6.0 miles
Clouds Overcast 2800 ft
Windchill -2 °F
Dew Point 4 °F
Humidity 82%
Rainfall 0.56 in
Snow Depth Not available.
8:07 AM 6:10 PM
Waxing Crescent, 8% visible
METAR KCMX 110053Z AUTO 34010G18KT 6SM -SN OVC028 M13/M18 A3006 RMK AO2 UPB38E39SNE38B42 SLP208 P0000 T11331178 TSNO $

10-Day Weather Forecast

Almanac

Astronomy

Feb. 10, 2016 Rise Set
Actual Time
Civil Twilight
Nautical Twilight
Astronomical Twilight
Moon
Length of Visible Light
Length of Day
Tomorrow will be .
, % of the Moon is Illuminated

Today's Extremes

State Highs State Lows

Community

WunderPhotos

Upload Photos

1,891,961 photos uploaded!

WunderBlog® & News

Nearby

Air Quality

  Air Quality AQ Index Pollutant
Not available.

Snow Depth

Station Depth Elevation

Earthquake Activity

City Distance Mag. Time & Date
Minimum magnitude displayed is 2.5.

Coastal Water Temperatures

Place Temperature

Stations

Nearby Weather Stations

Station Location Temp. Windchill Dew Point Humidity Wind Precip. Elev Updated Type
                   

Watches & Warnings

There are currently no watches in effect.